Time;durP1;ratioP1;P1;durP2;ratioP2;P2;SDS_P1;SDS_P2;PMS_P1;PMS_P2;Temp;Humidity;BMP_temperature;BMP_pressure;BME280_temperature;BME280_humidity;BME280_pressure;Samples;Min_cycle;Max_cycle;Signal;HPM_P1;HPM_P2
2024/01/11 00:00:29;;;;;;;320.73;137.47;;;;;;;;;;4997911;28;20209;-55
2024/01/11 00:02:55;;;;;;;330.47;142.83;;;;;;;;;;5002159;28;20209;-55
2024/01/11 00:05:21;;;;;;;300.33;128.67;;;;;;;;;;5000056;28;20229;-55
2024/01/11 00:07:47;;;;;;;360.67;158.37;;;;;;;;;;4996484;28;20239;-54
2024/01/11 00:10:13;;;;;;;301.50;128.27;;;;;;;;;;5001074;28;20221;-55
2024/01/11 00:12:39;;;;;;;324.80;136.60;;;;;;;;;;4997311;28;20731;-55
2024/01/11 00:15:05;;;;;;;332.87;140.50;;;;;;;;;;4991948;28;20228;-54
2024/01/11 00:17:31;;;;;;;334.20;140.43;;;;;;;;;;4995760;28;20225;-54
2024/01/11 00:19:57;;;;;;;318.07;135.00;;;;;;;;;;5001398;28;20196;-55
2024/01/11 00:22:23;;;;;;;313.90;130.20;;;;;;;;;;5001138;28;20260;-54
2024/01/11 00:24:49;;;;;;;346.07;147.80;;;;;;;;;;4992603;28;20691;-54
2024/01/11 00:27:15;;;;;;;334.37;142.43;;;;;;;;;;4998820;28;20320;-55
2024/01/11 00:29:41;;;;;;;379.47;160.43;;;;;;;;;;4997917;28;20221;-56
2024/01/11 00:32:07;;;;;;;307.80;131.03;;;;;;;;;;5001469;28;20177;-55
2024/01/11 00:34:33;;;;;;;314.60;133.33;;;;;;;;;;5000548;28;20262;-55
2024/01/11 00:36:59;;;;;;;297.53;130.87;;;;;;;;;;5002133;28;20216;-54
2024/01/11 00:39:25;;;;;;;310.63;130.97;;;;;;;;;;4997263;28;20588;-54
2024/01/11 00:41:51;;;;;;;342.87;147.03;;;;;;;;;;4991267;28;20219;-54
2024/01/11 00:44:17;;;;;;;365.70;159.87;;;;;;;;;;4997592;28;20241;-54
2024/01/11 00:46:43;;;;;;;318.73;138.23;;;;;;;;;;4995393;28;20181;-54
2024/01/11 00:49:10;;;;;;;320.27;136.57;;;;;;;;;;4998142;28;20217;-54
2024/01/11 00:51:36;;;;;;;317.77;136.00;;;;;;;;;;4998350;28;20225;-54
2024/01/11 00:54:02;;;;;;;320.93;136.10;;;;;;;;;;4999405;28;20246;-54
2024/01/11 00:56:28;;;;;;;333.50;143.00;;;;;;;;;;4990791;28;20216;-54
2024/01/11 00:58:54;;;;;;;315.00;134.70;;;;;;;;;;5001442;28;20522;-54
2024/01/11 01:01:20;;;;;;;297.97;126.67;;;;;;;;;;4996738;28;20212;-54
2024/01/11 01:03:46;;;;;;;329.60;140.17;;;;;;;;;;4999738;28;20332;-54
2024/01/11 01:06:12;;;;;;;320.77;137.03;;;;;;;;;;4995469;28;20221;-54
2024/01/11 01:08:38;;;;;;;335.83;143.17;;;;;;;;;;4994293;28;21434;-54
2024/01/11 01:11:04;;;;;;;332.27;142.53;;;;;;;;;;4991324;28;20193;-54
2024/01/11 01:13:30;;;;;;;310.27;130.93;;;;;;;;;;5000630;28;20215;-54
2024/01/11 01:15:56;;;;;;;321.03;137.43;;;;;;;;;;4995702;28;20599;-54
2024/01/11 01:18:22;;;;;;;323.27;135.23;;;;;;;;;;4997285;28;20251;-54
2024/01/11 01:20:48;;;;;;;369.67;157.50;;;;;;;;;;4998698;28;20219;-54
2024/01/11 01:23:14;;;;;;;313.50;135.57;;;;;;;;;;4998376;28;20409;-54
2024/01/11 01:25:40;;;;;;;359.47;154.00;;;;;;;;;;4998013;28;20200;-54
2024/01/11 01:28:06;;;;;;;319.07;133.97;;;;;;;;;;4992925;28;20212;-55
2024/01/11 01:30:32;;;;;;;298.83;130.10;;;;;;;;;;4998400;28;20306;-55
2024/01/11 01:32:58;;;;;;;330.70;139.63;;;;;;;;;;5000069;28;20221;-54
2024/01/11 01:35:24;;;;;;;318.23;134.53;;;;;;;;;;5000012;28;20300;-54
2024/01/11 01:37:50;;;;;;;309.50;130.03;;;;;;;;;;4995335;28;20182;-55
2024/01/11 01:40:16;;;;;;;308.77;129.70;;;;;;;;;;5000917;28;20221;-54
2024/01/11 01:42:45;;;;;;;296.90;127.47;;;;;;;;;;4989872;28;20235;-54
2024/01/11 01:45:12;;;;;;;346.40;149.23;;;;;;;;;;4993725;28;20227;-54
2024/01/11 01:47:42;;;;;;;334.47;142.57;;;;;;;;;;4999523;28;20408;-54
2024/01/11 01:50:08;;;;;;;304.33;130.80;;;;;;;;;;4998109;28;20633;-54
2024/01/11 01:52:35;;;;;;;302.10;130.70;;;;;;;;;;4999793;28;20200;-54
2024/01/11 01:55:02;;;;;;;289.27;125.27;;;;;;;;;;4998541;28;20220;-54
2024/01/11 01:57:28;;;;;;;308.73;134.73;;;;;;;;;;4998712;28;20227;-51
2024/01/11 01:59:54;;;;;;;345.77;149.40;;;;;;;;;;4994517;28;20663;-51
2024/01/11 02:02:21;;;;;;;339.00;144.70;;;;;;;;;;4994785;28;20264;-51
2024/01/11 02:04:47;;;;;;;327.17;137.03;;;;;;;;;;4998393;28;20316;-52
2024/01/11 02:07:14;;;;;;;345.97;145.40;;;;;;;;;;4993932;28;20822;-52
2024/01/11 02:09:40;;;;;;;296.40;127.07;;;;;;;;;;4989780;28;20251;-52
2024/01/11 02:12:10;;;;;;;286.00;124.23;;;;;;;;;;4996550;28;20228;-52
2024/01/11 02:14:37;;;;;;;361.17;154.13;;;;;;;;;;4992846;28;20642;-52
2024/01/11 02:17:03;;;;;;;300.73;129.50;;;;;;;;;;4989543;28;21239;-52
2024/01/11 02:19:30;;;;;;;308.60;132.53;;;;;;;;;;4995364;28;20193;-52
2024/01/11 02:21:57;;;;;;;329.67;144.13;;;;;;;;;;4993695;28;20235;-52
2024/01/11 02:24:23;;;;;;;320.10;137.53;;;;;;;;;;4992286;28;20221;-51
2024/01/11 02:26:59;;;;;;;344.77;148.27;;;;;;;;;;4989472;28;20232;-51
2024/01/11 02:29:25;;;;;;;302.23;127.03;;;;;;;;;;4993149;28;20221;-52
2024/01/11 02:31:52;;;;;;;312.10;134.43;;;;;;;;;;4993170;28;20231;-51
2024/01/11 02:34:18;;;;;;;342.20;145.83;;;;;;;;;;4993492;28;20255;-51
2024/01/11 02:36:44;;;;;;;376.23;164.90;;;;;;;;;;4991145;28;20227;-51
2024/01/11 02:39:11;;;;;;;328.40;136.63;;;;;;;;;;4994768;28;20209;-51
2024/01/11 02:41:38;;;;;;;366.83;157.27;;;;;;;;;;4990541;28;20562;-52
2024/01/11 02:44:04;;;;;;;346.90;143.90;;;;;;;;;;4993645;28;20255;-52
2024/01/11 02:46:30;;;;;;;347.27;148.07;;;;;;;;;;4987605;28;20193;-51
2024/01/11 02:48:56;;;;;;;334.23;141.97;;;;;;;;;;4995347;28;20252;-52
2024/01/11 02:51:22;;;;;;;327.00;138.30;;;;;;;;;;4998615;28;20240;-52
2024/01/11 02:53:48;;;;;;;325.20;138.70;;;;;;;;;;4998030;28;20306;-52
2024/01/11 02:56:14;;;;;;;346.67;146.07;;;;;;;;;;4997409;28;20173;-51
2024/01/11 02:58:40;;;;;;;326.30;137.37;;;;;;;;;;4997966;28;20727;-52
2024/01/11 03:01:06;;;;;;;333.00;140.23;;;;;;;;;;4995769;28;20221;-52
2024/01/11 03:03:32;;;;;;;315.00;130.77;;;;;;;;;;4999764;28;20667;-51
2024/01/11 03:05:58;;;;;;;320.40;133.83;;;;;;;;;;4997079;28;20240;-52
2024/01/11 03:08:24;;;;;;;301.53;126.53;;;;;;;;;;4987800;28;20221;-52
2024/01/11 03:10:50;;;;;;;325.33;138.33;;;;;;;;;;4998709;28;20662;-52
2024/01/11 03:13:16;;;;;;;300.27;127.07;;;;;;;;;;4998486;28;20244;-52
2024/01/11 03:15:43;;;;;;;340.90;146.53;;;;;;;;;;4989938;28;20287;-52
2024/01/11 03:18:09;;;;;;;324.23;136.90;;;;;;;;;;4993260;28;20221;-51
2024/01/11 03:20:35;;;;;;;351.60;147.10;;;;;;;;;;4994449;28;20217;-50
2024/01/11 03:23:01;;;;;;;379.33;163.53;;;;;;;;;;4990857;28;20181;-51
2024/01/11 03:25:27;;;;;;;329.63;137.83;;;;;;;;;;5000744;28;20623;-52
2024/01/11 03:27:53;;;;;;;331.93;140.50;;;;;;;;;;4999254;28;20225;-53
2024/01/11 03:30:19;;;;;;;356.03;152.00;;;;;;;;;;4996816;28;20515;-51
2024/01/11 03:32:45;;;;;;;334.93;142.80;;;;;;;;;;4993868;28;20305;-52
2024/01/11 03:35:11;;;;;;;334.40;141.70;;;;;;;;;;4999921;28;20238;-51
2024/01/11 03:43:54;;;;;;;262.73;113.13;;;;;;;;;;5013586;28;20215;-52
2024/01/11 03:49:59;;;;;;;271.10;116.00;;;;;;;;;;5010295;28;20175;-53
2024/01/11 04:12:55;;;;;;;274.63;116.17;;;;;;;;;;5013100;28;20173;-52
2024/01/11 04:15:42;;;;;;;268.60;113.13;;;;;;;;;;5016536;28;20632;-53
2024/01/11 04:18:08;;;;;;;371.43;156.73;;;;;;;;;;5003157;28;20266;-51
2024/01/11 04:20:34;;;;;;;346.13;147.37;;;;;;;;;;5013153;28;20676;-52
2024/01/11 04:23:00;;;;;;;316.00;134.57;;;;;;;;;;5009744;28;20188;-51
2024/01/11 04:25:26;;;;;;;318.43;135.80;;;;;;;;;;5006411;28;20692;-52
2024/01/11 04:27:52;;;;;;;308.53;134.53;;;;;;;;;;5007423;28;20224;-52
2024/01/11 04:30:18;;;;;;;341.23;146.97;;;;;;;;;;5009555;28;20232;-52
2024/01/11 04:32:44;;;;;;;315.67;132.90;;;;;;;;;;5002278;28;20224;-52
2024/01/11 04:35:10;;;;;;;326.87;139.50;;;;;;;;;;5006440;28;20701;-52
2024/01/11 04:37:36;;;;;;;303.03;127.87;;;;;;;;;;5002945;28;20177;-51
2024/01/11 04:40:03;;;;;;;313.73;133.77;;;;;;;;;;5007835;28;20409;-54
2024/01/11 04:42:29;;;;;;;296.17;127.07;;;;;;;;;;4996851;28;20229;-52
2024/01/11 04:44:55;;;;;;;337.80;143.43;;;;;;;;;;5004382;28;20224;-52
2024/01/11 04:47:21;;;;;;;314.93;134.60;;;;;;;;;;5006217;28;20463;-52
2024/01/11 04:49:47;;;;;;;319.87;133.70;;;;;;;;;;5013568;28;20354;-53
2024/01/11 04:52:13;;;;;;;302.53;128.17;;;;;;;;;;5003344;28;20495;-52
2024/01/11 04:54:39;;;;;;;307.40;129.37;;;;;;;;;;5009242;28;20246;-52
2024/01/11 04:57:05;;;;;;;307.80;131.07;;;;;;;;;;5003034;28;20241;-52
2024/01/11 04:59:31;;;;;;;309.63;128.90;;;;;;;;;;4996818;28;20684;-53
2024/01/11 05:01:57;;;;;;;333.17;139.50;;;;;;;;;;4994280;28;20343;-53
2024/01/11 05:04:23;;;;;;;314.03;131.87;;;;;;;;;;5014597;28;20216;-52
2024/01/11 05:06:49;;;;;;;318.63;133.43;;;;;;;;;;5004576;28;20539;-52
2024/01/11 05:09:15;;;;;;;329.43;136.60;;;;;;;;;;5000297;28;20570;-51
2024/01/11 05:11:41;;;;;;;321.23;133.20;;;;;;;;;;5000538;28;20224;-50
2024/01/11 05:14:07;;;;;;;322.93;135.87;;;;;;;;;;5001467;28;20687;-51
2024/01/11 05:16:35;;;;;;;320.83;133.97;;;;;;;;;;5000766;28;20550;-52
2024/01/11 05:19:01;;;;;;;314.73;135.87;;;;;;;;;;5012020;28;20315;-51
2024/01/11 05:21:27;;;;;;;304.37;129.80;;;;;;;;;;5003788;28;20239;-52
2024/01/11 05:23:53;;;;;;;302.80;127.17;;;;;;;;;;5007505;28;20217;-52
2024/01/11 05:26:20;;;;;;;302.17;124.53;;;;;;;;;;5008544;28;20224;-52
2024/01/11 05:28:46;;;;;;;329.53;137.73;;;;;;;;;;4997825;28;20190;-51
2024/01/11 05:31:13;;;;;;;335.13;141.83;;;;;;;;;;5007561;28;20623;-52
2024/01/11 05:33:39;;;;;;;311.83;130.40;;;;;;;;;;5007974;28;20234;-53
2024/01/11 05:36:06;;;;;;;332.63;138.07;;;;;;;;;;5005305;28;20225;-52
2024/01/11 05:38:32;;;;;;;317.50;133.33;;;;;;;;;;5009360;28;20311;-52
2024/01/11 05:40:58;;;;;;;368.23;157.80;;;;;;;;;;5001518;28;25099;-51
2024/01/11 05:43:24;;;;;;;339.27;150.07;;;;;;;;;;5005831;28;20283;-51
2024/01/11 05:45:50;;;;;;;310.57;131.23;;;;;;;;;;5001582;28;20349;-51
2024/01/11 05:48:17;;;;;;;356.43;158.53;;;;;;;;;;5002021;28;20314;-51
2024/01/11 05:50:43;;;;;;;296.87;127.07;;;;;;;;;;5011274;28;20208;-51
2024/01/11 05:53:11;;;;;;;317.67;135.90;;;;;;;;;;5000345;28;20187;-51
2024/01/11 05:55:37;;;;;;;337.07;146.80;;;;;;;;;;5007489;28;20227;-52
2024/01/11 05:58:03;;;;;;;400.33;173.87;;;;;;;;;;4997268;28;20225;-51
2024/01/11 06:00:29;;;;;;;296.97;126.67;;;;;;;;;;5005095;28;20307;-52
2024/01/11 06:02:55;;;;;;;318.93;142.07;;;;;;;;;;5009184;28;20231;-51
2024/01/11 06:05:21;;;;;;;364.93;153.97;;;;;;;;;;4995513;28;20216;-51
2024/01/11 06:07:47;;;;;;;356.93;148.57;;;;;;;;;;4996489;28;20220;-50
2024/01/11 06:10:15;;;;;;;334.37;142.63;;;;;;;;;;5012303;28;20314;-51
2024/01/11 06:12:41;;;;;;;355.60;154.27;;;;;;;;;;5002392;28;20208;-52
2024/01/11 06:15:07;;;;;;;324.60;137.60;;;;;;;;;;5003553;28;20738;-51
2024/01/11 06:17:33;;;;;;;316.10;133.43;;;;;;;;;;5002564;28;20246;-51
2024/01/11 06:19:59;;;;;;;313.67;132.27;;;;;;;;;;5011862;28;20184;-50
2024/01/11 06:22:25;;;;;;;361.47;154.80;;;;;;;;;;4994432;28;20267;-52
2024/01/11 06:24:51;;;;;;;341.57;143.13;;;;;;;;;;5002297;28;20221;-51
2024/01/11 06:27:17;;;;;;;327.77;139.53;;;;;;;;;;4966560;28;20241;-50
2024/01/11 06:29:43;;;;;;;298.30;127.03;;;;;;;;;;5003642;28;20675;-51
2024/01/11 06:32:09;;;;;;;356.47;148.07;;;;;;;;;;4991826;28;20607;-52
2024/01/11 06:34:36;;;;;;;361.23;150.37;;;;;;;;;;5001399;28;20228;-52
2024/01/11 06:37:02;;;;;;;343.23;143.53;;;;;;;;;;4998502;28;20208;-50
2024/01/11 06:39:29;;;;;;;319.70;136.57;;;;;;;;;;5007644;28;20208;-51
2024/01/11 06:41:55;;;;;;;333.47;141.63;;;;;;;;;;4998870;28;20611;-50
2024/01/11 06:44:21;;;;;;;326.37;136.03;;;;;;;;;;4999882;28;20324;-50
2024/01/11 06:46:47;;;;;;;304.67;132.07;;;;;;;;;;5002604;28;20235;-50
2024/01/11 06:49:14;;;;;;;355.10;153.27;;;;;;;;;;4998844;28;20218;-50
2024/01/11 06:51:40;;;;;;;364.37;153.93;;;;;;;;;;5005783;28;20220;-50
2024/01/11 06:54:06;;;;;;;328.87;138.90;;;;;;;;;;5010394;28;20663;-51
2024/01/11 06:56:32;;;;;;;317.20;137.07;;;;;;;;;;5001434;28;20498;-51
2024/01/11 06:58:57;;;;;;;349.40;147.10;;;;;;;;;;5009808;28;20184;-51
2024/01/11 07:01:23;;;;;;;324.43;132.73;;;;;;;;;;5007184;28;20180;-52
2024/01/11 07:03:49;;;;;;;297.17;126.93;;;;;;;;;;5008665;28;20717;-51
2024/01/11 07:06:16;;;;;;;388.03;162.93;;;;;;;;;;4991877;28;20313;-51
2024/01/11 07:08:41;;;;;;;320.10;135.20;;;-6.20;99.90;;;;;;5002534;28;20712;-52
2024/01/11 07:11:07;;;;;;;374.40;160.00;;;;;;;;;;4998739;28;20188;-52
2024/01/11 07:13:33;;;;;;;306.03;128.03;;;;;;;;;;5006918;28;20189;-51
2024/01/11 07:16:00;;;;;;;358.07;146.00;;;;;;;;;;4994379;28;20208;-52
2024/01/11 07:18:26;;;;;;;320.50;134.17;;;;;;;;;;4997338;28;20248;-53
2024/01/11 07:20:53;;;;;;;372.67;157.33;;;;;;;;;;4999849;28;20220;-51
2024/01/11 07:23:19;;;;;;;336.83;141.67;;;;;;;;;;5006676;28;20220;-52
2024/01/11 07:25:45;;;;;;;342.77;143.83;;;;;;;;;;5001108;28;20204;-52
2024/01/11 07:28:13;;;;;;;343.93;144.20;;;;;;;;;;4996516;28;20239;-51
2024/01/11 07:30:39;;;;;;;328.00;132.60;;;;;;;;;;4977370;28;20223;-52
2024/01/11 07:33:07;;;;;;;311.93;131.30;;;;;;;;;;5001703;28;20269;-52
2024/01/11 07:35:34;;;;;;;343.93;148.03;;;;;;;;;;5003267;28;20731;-53
2024/01/11 07:38:00;;;;;;;424.57;185.57;;;;;;;;;;4973170;28;20462;-52
2024/01/11 07:40:26;;;;;;;355.33;147.40;;;;;;;;;;4989731;28;20192;-52
2024/01/11 07:42:53;;;;;;;306.30;128.27;;;;;;;;;;5007772;28;20224;-51
2024/01/11 07:45:19;;;;;;;351.13;145.30;;;;;;;;;;5004132;28;20276;-52
2024/01/11 07:47:45;;;;;;;311.03;128.93;;;;;;;;;;4999284;28;20216;-51
2024/01/11 07:50:11;;;;;;;341.20;143.27;;;;;;;;;;5007036;28;20192;-52
2024/01/11 07:52:37;;;;;;;324.63;136.00;;;;;;;;;;5011131;28;20184;-52
2024/01/11 07:55:07;;;;;;;322.77;132.57;;;;;;;;;;4998096;28;20240;-51
2024/01/11 07:57:34;;;;;;;313.27;128.30;;;;;;;;;;5006634;28;20240;-52
2024/01/11 08:00:00;;;;;;;298.70;123.50;;;;;;;;;;5007183;28;20214;-51
2024/01/11 08:02:26;;;;;;;304.17;126.10;;;;;;;;;;5010764;28;20226;-52
2024/01/11 08:04:52;;;;;;;317.73;131.97;;;;;;;;;;5003491;28;20216;-52
2024/01/11 08:07:18;;;;;;;345.57;145.87;;;;;;;;;;4992339;28;20217;-52
2024/01/11 08:09:47;;;;;;;311.93;131.57;;;;;;;;;;5005650;28;20209;-51
2024/01/11 08:12:13;;;;;;;364.67;149.67;;;;;;;;;;4992117;28;20217;-52
2024/01/11 08:14:41;;;;;;;321.67;131.67;;;;;;;;;;5013197;28;20247;-52
2024/01/11 08:17:08;;;;;;;332.43;142.97;;;;;;;;;;4999785;28;20644;-51
2024/01/11 08:19:34;;;;;;;323.80;130.13;;;;;;;;;;5008890;28;20212;-59
2024/01/11 08:22:00;;;;;;;339.20;138.57;;;;;;;;;;5015181;28;20216;-52
2024/01/11 08:24:26;;;;;;;348.00;138.50;;;;;;;;;;5009284;28;20336;-53
2024/01/11 08:26:52;;;;;;;325.63;134.03;;;;;;;;;;5008204;28;20229;-53
2024/01/11 08:29:19;;;;;;;352.00;141.83;;;-4.70;99.90;;;;;;5001790;28;20729;-52
2024/01/11 08:31:45;;;;;;;334.67;134.27;;;;;;;;;;5005868;28;20207;-53
2024/01/11 08:34:11;;;;;;;333.13;138.17;;;;;;;;;;4992481;28;20224;-53
2024/01/11 08:36:38;;;;;;;374.67;155.43;;;;;;;;;;4998692;28;20246;-52
2024/01/11 08:39:12;;;;;;;374.03;153.77;;;;;;;;;;5007306;28;20307;-52
2024/01/11 08:41:38;;;;;;;319.90;127.83;;;;;;;;;;4995360;28;20208;-51
2024/01/11 08:44:07;;;;;;;324.30;134.97;;;;;;;;;;4997859;28;20237;-52
2024/01/11 08:46:33;;;;;;;318.87;129.07;;;;;;;;;;5003535;28;20192;-52
2024/01/11 08:49:01;;;;;;;355.03;145.77;;;;;;;;;;4997868;28;20216;-53
2024/01/11 08:51:27;;;;;;;345.40;138.33;;;;;;;;;;5001413;28;20244;-53
2024/01/11 08:53:53;;;;;;;345.27;141.90;;;;;;;;;;4998948;28;20677;-52
2024/01/11 08:56:19;;;;;;;334.77;137.03;;;;;;;;;;5005898;28;20226;-52
2024/01/11 08:58:46;;;;;;;333.30;132.23;;;;;;;;;;5012879;28;20620;-53
2024/01/11 09:01:12;;;;;;;387.23;158.97;;;;;;;;;;4999026;28;20311;-53
2024/01/11 09:03:38;;;;;;;388.47;162.70;;;;;;;;;;4996041;28;20212;-53
2024/01/11 09:06:04;;;;;;;345.70;143.63;;;;;;;;;;5007156;28;20590;-52
2024/01/11 09:08:30;;;;;;;343.70;138.67;;;;;;;;;;5005718;28;20244;-52
2024/01/11 09:10:59;;;;;;;349.13;140.40;;;;;;;;;;5011156;28;20995;-53
2024/01/11 09:13:31;;;;;;;382.20;159.77;;;;;;;;;;5003119;28;20290;-51
2024/01/11 09:15:58;;;;;;;343.47;137.90;;;;;;;;;;5011884;28;20289;-51
2024/01/11 09:18:24;;;;;;;340.07;140.43;;;;;;;;;;5012888;28;20219;-51
2024/01/11 09:20:50;;;;;;;398.43;162.83;;;;;;;;;;5014160;28;20208;-52
2024/01/11 09:23:17;;;;;;;351.30;142.40;;;;;;;;;;5005263;28;20192;-51
2024/01/11 09:25:43;;;;;;;346.37;144.43;;;;;;;;;;5003191;28;20205;-52
2024/01/11 09:28:09;;;;;;;363.53;142.47;;;;;;;;;;4988500;28;20328;-52
2024/01/11 09:30:35;;;;;;;350.83;138.17;;;;;;;;;;5011079;28;20311;-52
2024/01/11 09:33:02;;;;;;;334.87;132.00;;;;;;;;;;5004618;28;20219;-52
2024/01/11 09:35:28;;;;;;;340.50;136.13;;;;;;;;;;5011339;28;20295;-52
2024/01/11 09:37:54;;;;;;;341.27;134.53;;;;;;;;;;5010169;28;20284;-52
2024/01/11 09:40:20;;;;;;;355.80;143.17;;;;;;;;;;5008082;28;20227;-53
2024/01/11 09:42:46;;;;;;;337.40;134.90;;;;;;;;;;5005565;28;20220;-51
2024/01/11 09:45:16;;;;;;;327.40;132.93;;;;;;;;;;5005863;28;20255;-51
2024/01/11 09:47:42;;;;;;;329.67;132.37;;;;;;;;;;5008913;28;20825;-52
2024/01/11 09:50:08;;;;;;;340.70;140.07;;;;;;;;;;5007934;28;20184;-52
2024/01/11 09:52:34;;;;;;;335.80;134.80;;;;;;;;;;5002324;28;20176;-52
2024/01/11 09:55:00;;;;;;;347.00;139.77;;;;;;;;;;5015836;28;20232;-52
2024/01/11 09:57:32;;;;;;;367.77;147.30;;;;;;;;;;5003237;28;20614;-52
2024/01/11 09:59:59;;;;;;;337.60;137.47;;;;;;;;;;5005958;28;20316;-52
2024/01/11 10:02:26;;;;;;;345.03;140.20;;;;;;;;;;5004359;28;20221;-53
2024/01/11 10:04:52;;;;;;;349.27;140.57;;;;;;;;;;5021460;28;20353;-51
2024/01/11 10:07:22;;;;;;;371.47;149.00;;;;;;;;;;5004892;28;20235;-51
2024/01/11 10:09:49;;;;;;;418.77;178.37;;;;;;;;;;5007821;28;20231;-52
2024/01/11 10:12:15;;;;;;;356.93;143.10;;;;;;;;;;5010607;28;20227;-53
2024/01/11 10:14:41;;;;;;;336.07;131.77;;;;;;;;;;5006889;28;20369;-53
2024/01/11 10:17:07;;;;;;;374.73;151.40;;;;;;;;;;5017047;28;20192;-52
2024/01/11 10:19:33;;;;;;;364.03;141.23;;;;;;;;;;5003870;28;20274;-52
2024/01/11 10:21:59;;;;;;;359.27;145.53;;;;;;;;;;5010516;28;20273;-52
2024/01/11 10:24:26;;;;;;;376.33;150.73;;;;;;;;;;5004100;28;20216;-52
2024/01/11 10:27:03;;;;;;;343.37;134.47;;;;;;;;;;5010824;28;20770;-52
2024/01/11 10:29:33;;;;;;;384.93;155.97;;;;;;;;;;5007539;28;20698;-53
2024/01/11 10:31:59;;;;;;;348.27;139.53;;;;;;;;;;4999598;28;20235;-53
2024/01/11 10:34:25;;;;;;;360.97;144.20;;;;;;;;;;5012912;28;20204;-52
2024/01/11 10:36:52;;;;;;;376.20;148.27;;;;;;;;;;4999614;28;20688;-52
2024/01/11 10:39:18;;;;;;;382.43;149.53;;;;;;;;;;5009607;28;20318;-52
2024/01/11 10:41:48;;;;;;;372.77;147.60;;;;;;;;;;5003564;28;20282;-52
2024/01/11 10:44:20;;;;;;;372.67;148.70;;;;;;;;;;4998161;28;20210;-51
2024/01/11 10:46:46;;;;;;;344.20;134.70;;;-2.40;99.90;;;;;;5005333;28;20445;-52
2024/01/11 10:49:12;;;;;;;368.17;147.60;;;;;;;;;;5006030;28;20927;-52
2024/01/11 10:51:39;;;;;;;331.63;131.53;;;-2.20;99.90;;;;;;5004475;28;20294;-52
2024/01/11 10:54:06;;;;;;;352.50;140.80;;;;;;;;;;4997649;28;20562;-52
2024/01/11 10:56:33;;;;;;;365.50;142.37;;;;;;;;;;5003704;28;20232;-53
2024/01/11 10:58:59;;;;;;;341.30;137.57;;;;;;;;;;5006256;28;20321;-53
2024/01/11 11:01:25;;;;;;;352.17;141.30;;;;;;;;;;5014563;28;20195;-53
2024/01/11 11:03:53;;;;;;;345.30;136.80;;;;;;;;;;4999535;28;20397;-53
2024/01/11 11:06:19;;;;;;;382.83;157.23;;;;;;;;;;5013289;28;20216;-53
2024/01/11 11:08:45;;;;;;;322.00;128.77;;;;;;;;;;4990699;28;20703;-52
2024/01/11 11:11:11;;;;;;;332.60;132.90;;;;;;;;;;5000503;28;20195;-52
2024/01/11 11:13:38;;;;;;;367.20;149.57;;;;;;;;;;5003281;28;20196;-53
2024/01/11 11:16:03;;;;;;;325.67;128.07;;;-2.00;99.90;;;;;;5006305;28;20220;-53
2024/01/11 11:18:30;;;;;;;419.43;169.73;;;;;;;;;;4997707;28;20216;-53
2024/01/11 11:20:56;;;;;;;340.57;134.57;;;;;;;;;;5003812;28;20221;-52
2024/01/11 11:23:23;;;;;;;417.83;174.50;;;;;;;;;;4998417;28;20329;-52
2024/01/11 11:25:50;;;;;;;392.03;159.33;;;;;;;;;;4992319;28;20494;-51
2024/01/11 11:28:17;;;;;;;366.57;142.10;;;;;;;;;;5000994;28;20298;-52
2024/01/11 11:30:44;;;;;;;349.80;134.67;;;;;;;;;;5017064;28;20270;-52
2024/01/11 11:33:10;;;;;;;337.07;130.60;;;;;;;;;;4994579;28;20930;-52
2024/01/11 11:35:37;;;;;;;421.87;172.07;;;;;;;;;;4999571;28;20621;-52
2024/01/11 11:38:03;;;;;;;372.93;148.73;;;;;;;;;;4993697;28;20200;-52
2024/01/11 11:40:36;;;;;;;381.13;149.90;;;;;;;;;;5001739;28;20660;-52
2024/01/11 11:43:04;;;;;;;354.53;140.37;;;;;;;;;;5014954;28;20216;-52
2024/01/11 11:45:31;;;;;;;422.70;172.73;;;;;;;;;;5011302;28;20278;-52
2024/01/11 11:47:57;;;;;;;367.33;143.70;;;;;;;;;;4987470;28;22028;-53
2024/01/11 11:50:24;;;;;;;363.70;143.93;;;;;;;;;;5009557;28;20213;-52
2024/01/11 11:52:57;;;;;;;361.03;142.27;;;;;;;;;;5001722;28;20971;-53
2024/01/11 11:55:26;;;;;;;367.33;145.27;;;;;;;;;;5004899;28;20224;-52
2024/01/11 11:57:53;;;;;;;366.63;143.57;;;;;;;;;;5002432;28;20217;-51
2024/01/11 12:00:20;;;;;;;411.20;162.30;;;;;;;;;;5000683;28;20224;-51
2024/01/11 12:02:47;;;;;;;327.07;127.27;;;;;;;;;;5000515;28;20205;-52
2024/01/11 12:05:13;;;;;;;348.43;135.53;;;;;;;;;;5010338;28;20279;-51
2024/01/11 12:07:39;;;;;;;368.77;143.27;;;;;;;;;;5007775;28;20181;-52
2024/01/11 12:10:06;;;;;;;338.93;134.30;;;;;;;;;;5002214;28;20262;-51
2024/01/11 12:12:32;;;;;;;390.27;152.73;;;;;;;;;;5012396;28;20217;-51
2024/01/11 12:14:58;;;;;;;348.63;136.57;;;;;;;;;;5010580;28;20638;-50
2024/01/11 12:17:24;;;;;;;383.13;152.97;;;;;;;;;;4999368;28;20224;-52
2024/01/11 12:19:52;;;;;;;350.00;140.30;;;;;;;;;;5004338;28;20176;-52
2024/01/11 12:22:19;;;;;;;362.30;146.47;;;;;;;;;;5004704;28;20255;-51
2024/01/11 12:24:46;;;;;;;355.53;141.67;;;;;;;;;;5010497;28;20212;-52
2024/01/11 12:27:12;;;;;;;366.00;141.70;;;;;;;;;;5005336;28;20229;-52
2024/01/11 12:29:40;;;;;;;388.00;158.43;;;0.60;99.90;;;;;;4996190;28;20620;-53
2024/01/11 12:32:06;;;;;;;354.40;138.43;;;;;;;;;;5006349;28;20492;-52
2024/01/11 12:34:32;;;;;;;338.97;134.20;;;;;;;;;;5003906;28;20220;-52
2024/01/11 12:37:01;;;;;;;332.73;129.60;;;;;;;;;;5009654;28;20211;-53
2024/01/11 12:39:27;;;;;;;372.67;150.93;;;;;;;;;;4998047;28;20225;-53
2024/01/11 12:41:57;;;;;;;344.10;132.63;;;;;;;;;;5013142;28;20219;-53
2024/01/11 12:44:23;;;;;;;343.57;135.57;;;;;;;;;;5018279;28;20220;-53
2024/01/11 12:46:49;;;;;;;355.07;141.47;;;-1.70;99.90;;;;;;5009901;28;20180;-52
2024/01/11 12:49:15;;;;;;;358.27;144.20;;;;;;;;;;5016623;28;20223;-52
2024/01/11 12:51:41;;;;;;;349.00;137.27;;;;;;;;;;5018199;28;20768;-52
2024/01/11 12:54:14;;;;;;;346.47;134.73;;;;;;;;;;5010751;28;20220;-53
2024/01/11 12:56:43;;;;;;;385.80;153.07;;;;;;;;;;5005936;28;20733;-53
2024/01/11 12:59:10;;;;;;;337.27;134.70;;;;;;;;;;5016335;28;20583;-53
2024/01/11 13:01:38;;;;;;;364.27;143.10;;;;;;;;;;5007735;28;20187;-53
2024/01/11 13:04:04;;;;;;;336.90;132.73;;;;;;;;;;5015387;28;20734;-53
2024/01/11 13:06:31;;;;;;;365.60;144.27;;;;;;;;;;5010015;28;20224;-53
2024/01/11 13:08:57;;;;;;;396.80;161.20;;;;;;;;;;5015395;28;20226;-52
2024/01/11 13:11:24;;;;;;;340.53;134.53;;;;;;;;;;4995715;28;20775;-52
2024/01/11 13:13:50;;;;;;;380.13;152.33;;;;;;;;;;5003173;28;20189;-52
2024/01/11 13:16:18;;;;;;;367.20;142.67;;;;;;;;;;5003838;28;20672;-53
2024/01/11 13:18:44;;;;;;;398.47;155.33;;;;;;;;;;5010960;28;20327;-52
2024/01/11 13:21:12;;;;;;;361.87;143.03;;;;;;;;;;5005831;28;20361;-52
2024/01/11 13:23:38;;;;;;;353.40;136.10;;;;;;;;;;5008759;28;20328;-52
2024/01/11 13:26:04;;;;;;;383.60;158.37;;;-1.60;99.90;;;;;;5010422;28;20200;-51
2024/01/11 13:28:30;;;;;;;366.87;143.70;;;;;;;;;;5003321;28;20600;-52
2024/01/11 13:30:57;;;;;;;362.83;144.00;;;;;;;;;;5007914;28;20216;-52
2024/01/11 13:33:23;;;;;;;383.77;154.17;;;;;;;;;;5011634;28;20604;-53
2024/01/11 13:35:50;;;;;;;343.90;133.00;;;;;;;;;;5018494;28;20254;-53
2024/01/11 13:38:16;;;;;;;475.50;207.17;;;;;;;;;;5000660;28;20462;-52
2024/01/11 13:40:43;;;;;;;405.20;164.33;;;;;;;;;;4999501;28;20650;-52
2024/01/11 13:43:09;;;;;;;330.70;127.10;;;;;;;;;;5007170;28;20313;-53
2024/01/11 13:45:36;;;;;;;411.10;168.60;;;;;;;;;;5012619;28;20824;-53
2024/01/11 13:48:06;;;;;;;387.63;155.27;;;;;;;;;;5004730;28;20224;-53
2024/01/11 13:50:32;;;;;;;400.77;159.93;;;;;;;;;;5008937;28;20267;-52
2024/01/11 13:52:58;;;;;;;363.37;139.87;;;;;;;;;;5013829;28;20638;-52
2024/01/11 13:55:24;;;;;;;351.13;135.03;;;;;;;;;;4996979;28;20228;-52
2024/01/11 13:57:51;;;;;;;366.60;142.33;;;;;;;;;;5013726;28;20214;-50
2024/01/11 14:00:18;;;;;;;382.50;151.30;;;;;;;;;;5006149;28;20307;-51
2024/01/11 14:02:44;;;;;;;374.23;151.50;;;;;;;;;;5005057;28;20209;-50
2024/01/11 14:05:14;;;;;;;367.83;147.37;;;;;;;;;;5005984;28;20204;-52
2024/01/11 14:07:41;;;;;;;371.87;146.27;;;;;;;;;;5013244;28;21140;-51
2024/01/11 14:10:08;;;;;;;334.80;131.30;;;;;;;;;;5008014;28;20634;-51
2024/01/11 14:12:35;;;;;;;355.53;139.17;;;;;;;;;;5010469;28;20731;-52
2024/01/11 14:15:01;;;;;;;370.80;145.40;;;;;;;;;;5006526;28;20234;-51